sensor_id;sensor_type;location;lat;lon;timestamp;temperature;humidity
14850;DHT22;7517;48.400;11.770;2023-04-15T00:00:24;11.20;79.70
14850;DHT22;7517;48.400;11.770;2023-04-15T00:02:51;11.20;79.50
14850;DHT22;7517;48.400;11.770;2023-04-15T00:05:18;11.20;79.40
14850;DHT22;7517;48.400;11.770;2023-04-15T00:07:45;11.20;79.50
14850;DHT22;7517;48.400;11.770;2023-04-15T00:10:13;11.10;79.40
14850;DHT22;7517;48.400;11.770;2023-04-15T00:12:41;11.10;79.60
14850;DHT22;7517;48.400;11.770;2023-04-15T00:15:09;11.10;79.80
14850;DHT22;7517;48.400;11.770;2023-04-15T00:17:37;11.10;79.80
14850;DHT22;7517;48.400;11.770;2023-04-15T00:20:06;11.10;79.80
14850;DHT22;7517;48.400;11.770;2023-04-15T00:22:33;11.10;80.00
14850;DHT22;7517;48.400;11.770;2023-04-15T00:25:01;11.10;80.20
14850;DHT22;7517;48.400;11.770;2023-04-15T00:27:28;11.10;80.30
14850;DHT22;7517;48.400;11.770;2023-04-15T00:29:57;11.10;80.20
14850;DHT22;7517;48.400;11.770;2023-04-15T00:32:24;11.10;80.30
14850;DHT22;7517;48.400;11.770;2023-04-15T00:34:52;11.10;80.40
14850;DHT22;7517;48.400;11.770;2023-04-15T00:37:19;11.20;80.50
14850;DHT22;7517;48.400;11.770;2023-04-15T00:39:46;11.10;80.40
14850;DHT22;7517;48.400;11.770;2023-04-15T00:42:14;11.10;80.40
14850;DHT22;7517;48.400;11.770;2023-04-15T00:44:42;11.10;80.40
14850;DHT22;7517;48.400;11.770;2023-04-15T00:47:11;11.10;80.40
14850;DHT22;7517;48.400;11.770;2023-04-15T00:49:39;11.10;80.30
14850;DHT22;7517;48.400;11.770;2023-04-15T00:52:06;11.10;80.20
14850;DHT22;7517;48.400;11.770;2023-04-15T00:54:34;11.10;80.30
14850;DHT22;7517;48.400;11.770;2023-04-15T00:57:04;11.10;80.20
14850;DHT22;7517;48.400;11.770;2023-04-15T00:59:33;11.10;80.20
14850;DHT22;7517;48.400;11.770;2023-04-15T01:02:00;11.10;80.30
14850;DHT22;7517;48.400;11.770;2023-04-15T01:04:29;11.10;80.30
14850;DHT22;7517;48.400;11.770;2023-04-15T01:06:58;11.10;80.40
14850;DHT22;7517;48.400;11.770;2023-04-15T01:09:26;11.10;80.50
14850;DHT22;7517;48.400;11.770;2023-04-15T01:11:53;11.10;80.40
14850;DHT22;7517;48.400;11.770;2023-04-15T01:14:20;11.10;80.20
14850;DHT22;7517;48.400;11.770;2023-04-15T01:16:47;11.20;80.20
14850;DHT22;7517;48.400;11.770;2023-04-15T01:19:16;11.10;80.20
14850;DHT22;7517;48.400;11.770;2023-04-15T01:21:45;11.10;80.20
14850;DHT22;7517;48.400;11.770;2023-04-15T01:24:12;11.10;80.20
14850;DHT22;7517;48.400;11.770;2023-04-15T01:26:45;11.10;80.30
14850;DHT22;7517;48.400;11.770;2023-04-15T01:29:14;11.10;80.30
14850;DHT22;7517;48.400;11.770;2023-04-15T01:31:49;11.10;80.20
14850;DHT22;7517;48.400;11.770;2023-04-15T01:34:17;11.20;80.10
14850;DHT22;7517;48.400;11.770;2023-04-15T01:36:45;11.20;80.20
14850;DHT22;7517;48.400;11.770;2023-04-15T01:39:13;11.10;80.20
14850;DHT22;7517;48.400;11.770;2023-04-15T01:41:40;11.20;80.30
14850;DHT22;7517;48.400;11.770;2023-04-15T01:44:09;11.10;80.20
14850;DHT22;7517;48.400;11.770;2023-04-15T01:46:36;11.20;80.20
14850;DHT22;7517;48.400;11.770;2023-04-15T01:49:04;11.20;80.30
14850;DHT22;7517;48.400;11.770;2023-04-15T01:51:32;11.20;80.40
14850;DHT22;7517;48.400;11.770;2023-04-15T01:53:59;11.10;80.20
14850;DHT22;7517;48.400;11.770;2023-04-15T01:56:26;11.20;80.20
14850;DHT22;7517;48.400;11.770;2023-04-15T01:58:54;11.20;80.30
14850;DHT22;7517;48.400;11.770;2023-04-15T02:01:22;11.10;80.30
14850;DHT22;7517;48.400;11.770;2023-04-15T02:03:50;11.20;80.20
14850;DHT22;7517;48.400;11.770;2023-04-15T02:06:17;11.20;80.20
14850;DHT22;7517;48.400;11.770;2023-04-15T02:08:44;11.10;80.00
14850;DHT22;7517;48.400;11.770;2023-04-15T02:11:11;11.20;79.90
14850;DHT22;7517;48.400;11.770;2023-04-15T02:13:39;11.10;80.00
14850;DHT22;7517;48.400;11.770;2023-04-15T02:16:14;11.10;79.90
14850;DHT22;7517;48.400;11.770;2023-04-15T02:18:45;11.10;79.90
14850;DHT22;7517;48.400;11.770;2023-04-15T02:21:12;11.10;80.00
14850;DHT22;7517;48.400;11.770;2023-04-15T02:23:40;11.10;80.00
14850;DHT22;7517;48.400;11.770;2023-04-15T02:26:08;11.10;80.00
14850;DHT22;7517;48.400;11.770;2023-04-15T02:28:36;11.10;80.10
14850;DHT22;7517;48.400;11.770;2023-04-15T02:31:04;11.10;80.10
14850;DHT22;7517;48.400;11.770;2023-04-15T02:33:32;11.10;80.10
14850;DHT22;7517;48.400;11.770;2023-04-15T02:36:01;11.10;80.10
14850;DHT22;7517;48.400;11.770;2023-04-15T02:38:29;11.10;80.20
14850;DHT22;7517;48.400;11.770;2023-04-15T02:40:56;11.20;80.20
14850;DHT22;7517;48.400;11.770;2023-04-15T02:43:24;11.20;80.10
14850;DHT22;7517;48.400;11.770;2023-04-15T02:45:51;11.10;80.10
14850;DHT22;7517;48.400;11.770;2023-04-15T02:48:18;11.10;80.10
14850;DHT22;7517;48.400;11.770;2023-04-15T02:50:45;11.10;80.00
14850;DHT22;7517;48.400;11.770;2023-04-15T02:53:14;11.20;80.00
14850;DHT22;7517;48.400;11.770;2023-04-15T02:55:42;11.10;80.00
14850;DHT22;7517;48.400;11.770;2023-04-15T02:58:09;11.10;79.90
14850;DHT22;7517;48.400;11.770;2023-04-15T03:00:37;11.10;79.90
14850;DHT22;7517;48.400;11.770;2023-04-15T03:03:05;11.10;79.90
14850;DHT22;7517;48.400;11.770;2023-04-15T03:05:32;11.10;79.90
14850;DHT22;7517;48.400;11.770;2023-04-15T03:07:59;11.10;79.80
14850;DHT22;7517;48.400;11.770;2023-04-15T03:10:29;11.10;79.90
14850;DHT22;7517;48.400;11.770;2023-04-15T03:12:56;11.10;79.90
14850;DHT22;7517;48.400;11.770;2023-04-15T03:15:23;11.10;79.90
14850;DHT22;7517;48.400;11.770;2023-04-15T03:17:50;11.10;79.90
14850;DHT22;7517;48.400;11.770;2023-04-15T03:20:18;11.10;80.30
14850;DHT22;7517;48.400;11.770;2023-04-15T03:22:45;11.10;79.90
14850;DHT22;7517;48.400;11.770;2023-04-15T03:25:12;11.10;79.80
14850;DHT22;7517;48.400;11.770;2023-04-15T03:27:41;11.10;79.80
14850;DHT22;7517;48.400;11.770;2023-04-15T03:30:09;11.10;79.90
14850;DHT22;7517;48.400;11.770;2023-04-15T03:32:38;11.10;79.90
14850;DHT22;7517;48.400;11.770;2023-04-15T03:35:06;11.10;79.80
14850;DHT22;7517;48.400;11.770;2023-04-15T03:37:34;11.20;79.70
14850;DHT22;7517;48.400;11.770;2023-04-15T03:40:01;11.10;79.70
14850;DHT22;7517;48.400;11.770;2023-04-15T03:42:28;11.10;79.80
14850;DHT22;7517;48.400;11.770;2023-04-15T03:44:57;11.10;79.80
14850;DHT22;7517;48.400;11.770;2023-04-15T03:47:24;11.10;79.80
14850;DHT22;7517;48.400;11.770;2023-04-15T03:49:52;11.10;79.80
14850;DHT22;7517;48.400;11.770;2023-04-15T03:52:19;11.10;79.70
14850;DHT22;7517;48.400;11.770;2023-04-15T03:54:49;11.10;79.60
14850;DHT22;7517;48.400;11.770;2023-04-15T03:57:17;11.10;79.60
14850;DHT22;7517;48.400;11.770;2023-04-15T03:59:45;11.10;79.60
14850;DHT22;7517;48.400;11.770;2023-04-15T04:02:15;11.10;79.50
14850;DHT22;7517;48.400;11.770;2023-04-15T04:04:42;11.10;79.50
14850;DHT22;7517;48.400;11.770;2023-04-15T04:07:14;11.10;79.40
14850;DHT22;7517;48.400;11.770;2023-04-15T04:09:42;11.10;79.30
14850;DHT22;7517;48.400;11.770;2023-04-15T04:12:09;11.10;79.40
14850;DHT22;7517;48.400;11.770;2023-04-15T04:14:36;11.10;79.40
14850;DHT22;7517;48.400;11.770;2023-04-15T04:17:03;11.10;79.50
14850;DHT22;7517;48.400;11.770;2023-04-15T04:19:32;11.10;79.50
14850;DHT22;7517;48.400;11.770;2023-04-15T04:22:00;11.10;79.50
14850;DHT22;7517;48.400;11.770;2023-04-15T04:24:27;11.10;79.40
14850;DHT22;7517;48.400;11.770;2023-04-15T04:26:54;11.10;79.40
14850;DHT22;7517;48.400;11.770;2023-04-15T04:29:22;11.10;79.40
14850;DHT22;7517;48.400;11.770;2023-04-15T04:31:49;11.00;79.30
14850;DHT22;7517;48.400;11.770;2023-04-15T04:34:16;11.00;79.20
14850;DHT22;7517;48.400;11.770;2023-04-15T04:36:45;11.00;79.30
14850;DHT22;7517;48.400;11.770;2023-04-15T04:39:12;11.00;79.40
14850;DHT22;7517;48.400;11.770;2023-04-15T04:41:39;11.00;79.40
14850;DHT22;7517;48.400;11.770;2023-04-15T04:44:07;11.00;79.60
14850;DHT22;7517;48.400;11.770;2023-04-15T04:46:34;11.00;79.60
14850;DHT22;7517;48.400;11.770;2023-04-15T04:49:01;11.00;79.60
14850;DHT22;7517;48.400;11.770;2023-04-15T04:51:28;11.00;79.50
14850;DHT22;7517;48.400;11.770;2023-04-15T04:53:57;11.00;79.50
14850;DHT22;7517;48.400;11.770;2023-04-15T04:56:24;11.00;79.60
14850;DHT22;7517;48.400;11.770;2023-04-15T04:58:51;11.00;79.50
14850;DHT22;7517;48.400;11.770;2023-04-15T05:01:19;11.00;79.50
14850;DHT22;7517;48.400;11.770;2023-04-15T05:03:46;11.00;79.60
14850;DHT22;7517;48.400;11.770;2023-04-15T05:06:13;11.00;79.80
14850;DHT22;7517;48.400;11.770;2023-04-15T05:08:40;11.00;79.70
14850;DHT22;7517;48.400;11.770;2023-04-15T05:11:08;11.10;80.50
14850;DHT22;7517;48.400;11.770;2023-04-15T05:13:35;11.10;79.80
14850;DHT22;7517;48.400;11.770;2023-04-15T05:16:04;11.10;79.80
14850;DHT22;7517;48.400;11.770;2023-04-15T05:18:32;11.10;79.80
14850;DHT22;7517;48.400;11.770;2023-04-15T05:21:00;11.10;79.70
14850;DHT22;7517;48.400;11.770;2023-04-15T05:23:28;11.10;79.60
14850;DHT22;7517;48.400;11.770;2023-04-15T05:25:55;11.10;79.60
14850;DHT22;7517;48.400;11.770;2023-04-15T05:28:24;11.20;79.70
14850;DHT22;7517;48.400;11.770;2023-04-15T05:30:51;11.20;79.50
14850;DHT22;7517;48.400;11.770;2023-04-15T05:33:19;11.30;79.50
14850;DHT22;7517;48.400;11.770;2023-04-15T05:35:46;11.20;79.60
14850;DHT22;7517;48.400;11.770;2023-04-15T05:38:13;11.20;79.70
14850;DHT22;7517;48.400;11.770;2023-04-15T05:40:40;11.30;79.70
14850;DHT22;7517;48.400;11.770;2023-04-15T05:43:08;11.30;79.70
14850;DHT22;7517;48.400;11.770;2023-04-15T05:45:37;11.30;79.80
14850;DHT22;7517;48.400;11.770;2023-04-15T05:48:04;11.30;79.60
14850;DHT22;7517;48.400;11.770;2023-04-15T05:50:31;11.40;79.60
14850;DHT22;7517;48.400;11.770;2023-04-15T05:52:59;11.40;79.60
14850;DHT22;7517;48.400;11.770;2023-04-15T05:55:26;11.40;79.50
14850;DHT22;7517;48.400;11.770;2023-04-15T05:57:53;11.40;79.60
14850;DHT22;7517;48.400;11.770;2023-04-15T06:00:21;11.40;79.50
14850;DHT22;7517;48.400;11.770;2023-04-15T06:02:50;11.40;79.50
14850;DHT22;7517;48.400;11.770;2023-04-15T06:05:17;11.50;79.70
14850;DHT22;7517;48.400;11.770;2023-04-15T06:07:45;11.50;79.60
14850;DHT22;7517;48.400;11.770;2023-04-15T06:10:12;11.50;79.60
14850;DHT22;7517;48.400;11.770;2023-04-15T06:12:39;11.60;79.60
14850;DHT22;7517;48.400;11.770;2023-04-15T06:15:07;11.60;79.50
14850;DHT22;7517;48.400;11.770;2023-04-15T06:17:35;11.60;79.40
14850;DHT22;7517;48.400;11.770;2023-04-15T06:20:05;11.70;79.40
14850;DHT22;7517;48.400;11.770;2023-04-15T06:22:33;11.70;79.30
14850;DHT22;7517;48.400;11.770;2023-04-15T06:25:03;11.70;79.50
14850;DHT22;7517;48.400;11.770;2023-04-15T06:27:32;11.70;79.50
14850;DHT22;7517;48.400;11.770;2023-04-15T06:30:00;11.80;79.40
14850;DHT22;7517;48.400;11.770;2023-04-15T06:32:27;11.80;79.30
14850;DHT22;7517;48.400;11.770;2023-04-15T06:34:54;11.80;79.00
14850;DHT22;7517;48.400;11.770;2023-04-15T06:37:23;11.80;79.10
14850;DHT22;7517;48.400;11.770;2023-04-15T06:39:50;11.90;79.10
14850;DHT22;7517;48.400;11.770;2023-04-15T06:42:17;11.90;79.90
14850;DHT22;7517;48.400;11.770;2023-04-15T06:44:44;11.90;79.40
14850;DHT22;7517;48.400;11.770;2023-04-15T06:47:12;11.90;79.20
14850;DHT22;7517;48.400;11.770;2023-04-15T06:49:39;12.00;79.20
14850;DHT22;7517;48.400;11.770;2023-04-15T06:52:07;12.00;79.20
14850;DHT22;7517;48.400;11.770;2023-04-15T06:54:37;12.00;79.20
14850;DHT22;7517;48.400;11.770;2023-04-15T06:57:07;12.00;79.20
14850;DHT22;7517;48.400;11.770;2023-04-15T06:59:35;12.10;79.20
14850;DHT22;7517;48.400;11.770;2023-04-15T07:02:02;12.10;79.20
14850;DHT22;7517;48.400;11.770;2023-04-15T07:04:29;12.10;79.10
14850;DHT22;7517;48.400;11.770;2023-04-15T07:06:57;12.20;79.30
14850;DHT22;7517;48.400;11.770;2023-04-15T07:09:25;12.20;79.30
14850;DHT22;7517;48.400;11.770;2023-04-15T07:11:53;12.20;79.50
14850;DHT22;7517;48.400;11.770;2023-04-15T07:14:21;12.20;79.30
14850;DHT22;7517;48.400;11.770;2023-04-15T07:16:48;12.20;79.20
14850;DHT22;7517;48.400;11.770;2023-04-15T07:19:15;12.20;79.20
14850;DHT22;7517;48.400;11.770;2023-04-15T07:21:43;12.30;79.40
14850;DHT22;7517;48.400;11.770;2023-04-15T07:24:10;12.30;79.30
14850;DHT22;7517;48.400;11.770;2023-04-15T07:26:37;12.30;79.20
14850;DHT22;7517;48.400;11.770;2023-04-15T07:29:06;12.30;79.20
14850;DHT22;7517;48.400;11.770;2023-04-15T07:31:33;12.30;79.00
14850;DHT22;7517;48.400;11.770;2023-04-15T07:34:01;12.40;79.00
14850;DHT22;7517;48.400;11.770;2023-04-15T07:36:29;12.40;79.00
14850;DHT22;7517;48.400;11.770;2023-04-15T07:38:57;12.40;78.90
14850;DHT22;7517;48.400;11.770;2023-04-15T07:41:26;12.40;78.80
14850;DHT22;7517;48.400;11.770;2023-04-15T07:43:53;12.40;78.80
14850;DHT22;7517;48.400;11.770;2023-04-15T07:46:22;12.40;78.80
14850;DHT22;7517;48.400;11.770;2023-04-15T07:48:51;12.50;78.90
14850;DHT22;7517;48.400;11.770;2023-04-15T07:51:19;12.50;79.10
14850;DHT22;7517;48.400;11.770;2023-04-15T07:53:48;12.50;79.20
14850;DHT22;7517;48.400;11.770;2023-04-15T07:56:16;12.50;79.10
14850;DHT22;7517;48.400;11.770;2023-04-15T07:58:43;12.60;78.90
14850;DHT22;7517;48.400;11.770;2023-04-15T08:01:11;12.60;78.90
14850;DHT22;7517;48.400;11.770;2023-04-15T08:03:39;12.70;79.00
14850;DHT22;7517;48.400;11.770;2023-04-15T08:06:07;12.70;79.00
14850;DHT22;7517;48.400;11.770;2023-04-15T08:08:34;12.70;79.10
14850;DHT22;7517;48.400;11.770;2023-04-15T08:11:02;12.70;79.20
14850;DHT22;7517;48.400;11.770;2023-04-15T08:13:29;12.80;79.10
14850;DHT22;7517;48.400;11.770;2023-04-15T08:16:18;12.80;79.10
14850;DHT22;7517;48.400;11.770;2023-04-15T08:18:49;12.90;78.90
14850;DHT22;7517;48.400;11.770;2023-04-15T08:21:18;12.90;79.30
14850;DHT22;7517;48.400;11.770;2023-04-15T08:23:47;12.90;79.30
14850;DHT22;7517;48.400;11.770;2023-04-15T08:26:15;13.00;79.30
14850;DHT22;7517;48.400;11.770;2023-04-15T08:28:43;13.00;79.00
14850;DHT22;7517;48.400;11.770;2023-04-15T08:31:12;13.00;79.70
14850;DHT22;7517;48.400;11.770;2023-04-15T08:33:40;13.10;78.90
14850;DHT22;7517;48.400;11.770;2023-04-15T08:36:09;13.10;78.80
14850;DHT22;7517;48.400;11.770;2023-04-15T08:38:37;13.20;79.00
14850;DHT22;7517;48.400;11.770;2023-04-15T08:41:10;13.20;79.10
14850;DHT22;7517;48.400;11.770;2023-04-15T08:43:48;13.30;78.90
14850;DHT22;7517;48.400;11.770;2023-04-15T08:46:20;13.30;78.90
14850;DHT22;7517;48.400;11.770;2023-04-15T08:48:49;13.40;79.00
14850;DHT22;7517;48.400;11.770;2023-04-15T08:51:18;13.50;79.00
14850;DHT22;7517;48.400;11.770;2023-04-15T08:53:48;13.60;78.80
14850;DHT22;7517;48.400;11.770;2023-04-15T08:56:16;13.70;78.80
14850;DHT22;7517;48.400;11.770;2023-04-15T08:58:45;13.70;78.50
14850;DHT22;7517;48.400;11.770;2023-04-15T09:01:14;13.80;78.40
14850;DHT22;7517;48.400;11.770;2023-04-15T09:03:42;13.90;78.10
14850;DHT22;7517;48.400;11.770;2023-04-15T09:06:10;13.90;77.70
14850;DHT22;7517;48.400;11.770;2023-04-15T09:08:39;14.00;77.30
14850;DHT22;7517;48.400;11.770;2023-04-15T09:11:08;14.00;76.80
14850;DHT22;7517;48.400;11.770;2023-04-15T09:13:35;14.00;76.20
14850;DHT22;7517;48.400;11.770;2023-04-15T09:16:05;14.00;76.10
14850;DHT22;7517;48.400;11.770;2023-04-15T09:18:33;14.00;76.20
14850;DHT22;7517;48.400;11.770;2023-04-15T09:21:05;14.10;76.40
14850;DHT22;7517;48.400;11.770;2023-04-15T09:23:34;14.10;75.80
14850;DHT22;7517;48.400;11.770;2023-04-15T09:26:04;14.10;75.60
14850;DHT22;7517;48.400;11.770;2023-04-15T09:28:33;14.10;75.10
14850;DHT22;7517;48.400;11.770;2023-04-15T09:31:07;14.10;75.20
14850;DHT22;7517;48.400;11.770;2023-04-15T09:33:53;14.10;74.80
14850;DHT22;7517;48.400;11.770;2023-04-15T09:36:24;14.10;74.10
14850;DHT22;7517;48.400;11.770;2023-04-15T09:38:56;14.10;75.00
14850;DHT22;7517;48.400;11.770;2023-04-15T09:41:25;14.00;74.70
14850;DHT22;7517;48.400;11.770;2023-04-15T09:43:54;14.00;74.50
14850;DHT22;7517;48.400;11.770;2023-04-15T09:46:39;14.00;74.30
14850;DHT22;7517;48.400;11.770;2023-04-15T09:49:08;14.00;73.40
14850;DHT22;7517;48.400;11.770;2023-04-15T09:51:36;14.00;74.30
14850;DHT22;7517;48.400;11.770;2023-04-15T09:54:03;14.00;74.40
14850;DHT22;7517;48.400;11.770;2023-04-15T09:56:33;14.00;74.30
14850;DHT22;7517;48.400;11.770;2023-04-15T09:59:04;14.00;74.30
14850;DHT22;7517;48.400;11.770;2023-04-15T10:01:32;14.00;74.40
14850;DHT22;7517;48.400;11.770;2023-04-15T10:04:02;14.00;74.50
14850;DHT22;7517;48.400;11.770;2023-04-15T10:06:31;14.00;74.20
14850;DHT22;7517;48.400;11.770;2023-04-15T10:09:00;14.00;74.20
14850;DHT22;7517;48.400;11.770;2023-04-15T10:11:29;14.00;74.00
14850;DHT22;7517;48.400;11.770;2023-04-15T10:13:59;14.00;74.30
14850;DHT22;7517;48.400;11.770;2023-04-15T10:16:27;13.90;73.80
14850;DHT22;7517;48.400;11.770;2023-04-15T10:18:57;13.90;73.90
14850;DHT22;7517;48.400;11.770;2023-04-15T10:21:29;13.90;74.10
14850;DHT22;7517;48.400;11.770;2023-04-15T10:23:57;13.90;73.30
14850;DHT22;7517;48.400;11.770;2023-04-15T10:26:26;13.80;72.80
14850;DHT22;7517;48.400;11.770;2023-04-15T10:28:54;13.80;72.40
14850;DHT22;7517;48.400;11.770;2023-04-15T10:31:23;13.80;72.80
14850;DHT22;7517;48.400;11.770;2023-04-15T10:33:51;13.80;72.90
14850;DHT22;7517;48.400;11.770;2023-04-15T10:36:19;13.80;73.60
14850;DHT22;7517;48.400;11.770;2023-04-15T10:38:47;13.80;72.70
14850;DHT22;7517;48.400;11.770;2023-04-15T10:41:16;13.80;73.20
14850;DHT22;7517;48.400;11.770;2023-04-15T10:43:48;13.80;73.10
14850;DHT22;7517;48.400;11.770;2023-04-15T10:46:35;13.80;72.90
14850;DHT22;7517;48.400;11.770;2023-04-15T10:49:07;13.80;71.20
14850;DHT22;7517;48.400;11.770;2023-04-15T10:51:39;13.80;72.60
14850;DHT22;7517;48.400;11.770;2023-04-15T10:54:11;13.70;72.50
14850;DHT22;7517;48.400;11.770;2023-04-15T10:56:41;13.80;72.20
14850;DHT22;7517;48.400;11.770;2023-04-15T10:59:09;13.80;72.40
14850;DHT22;7517;48.400;11.770;2023-04-15T11:01:52;13.80;72.40
14850;DHT22;7517;48.400;11.770;2023-04-15T11:04:52;13.90;71.50
14850;DHT22;7517;48.400;11.770;2023-04-15T11:07:51;13.90;71.70
14850;DHT22;7517;48.400;11.770;2023-04-15T11:10:51;13.90;71.40
14850;DHT22;7517;48.400;11.770;2023-04-15T11:13:26;13.90;71.40
14850;DHT22;7517;48.400;11.770;2023-04-15T11:15:59;13.90;72.60
14850;DHT22;7517;48.400;11.770;2023-04-15T11:18:33;13.90;72.30
14850;DHT22;7517;48.400;11.770;2023-04-15T11:21:02;13.90;72.20
14850;DHT22;7517;48.400;11.770;2023-04-15T11:23:33;13.90;72.30
14850;DHT22;7517;48.400;11.770;2023-04-15T11:26:04;13.90;72.20
14850;DHT22;7517;48.400;11.770;2023-04-15T11:28:34;13.90;72.40
14850;DHT22;7517;48.400;11.770;2023-04-15T11:31:07;13.90;72.80
14850;DHT22;7517;48.400;11.770;2023-04-15T11:33:43;13.90;72.70
14850;DHT22;7517;48.400;11.770;2023-04-15T11:36:12;13.90;72.80
14850;DHT22;7517;48.400;11.770;2023-04-15T11:38:42;13.90;72.60
14850;DHT22;7517;48.400;11.770;2023-04-15T11:41:10;14.00;72.30
14850;DHT22;7517;48.400;11.770;2023-04-15T11:43:38;14.00;72.50
14850;DHT22;7517;48.400;11.770;2023-04-15T11:46:06;14.00;72.00
14850;DHT22;7517;48.400;11.770;2023-04-15T11:48:34;13.90;72.20
14850;DHT22;7517;48.400;11.770;2023-04-15T11:51:05;13.90;72.70
14850;DHT22;7517;48.400;11.770;2023-04-15T11:53:38;14.00;72.90
14850;DHT22;7517;48.400;11.770;2023-04-15T11:56:08;14.00;72.90
14850;DHT22;7517;48.400;11.770;2023-04-15T11:58:37;14.00;72.90
14850;DHT22;7517;48.400;11.770;2023-04-15T12:01:06;14.00;72.60
14850;DHT22;7517;48.400;11.770;2023-04-15T12:03:37;14.00;72.90
14850;DHT22;7517;48.400;11.770;2023-04-15T12:06:16;13.90;73.00
14850;DHT22;7517;48.400;11.770;2023-04-15T12:08:58;14.00;72.70
14850;DHT22;7517;48.400;11.770;2023-04-15T12:11:41;14.00;73.00
14850;DHT22;7517;48.400;11.770;2023-04-15T12:14:15;14.10;73.40
14850;DHT22;7517;48.400;11.770;2023-04-15T12:16:48;14.10;73.60
14850;DHT22;7517;48.400;11.770;2023-04-15T12:19:18;14.10;73.20
14850;DHT22;7517;48.400;11.770;2023-04-15T12:21:54;14.10;72.90
14850;DHT22;7517;48.400;11.770;2023-04-15T12:24:24;14.20;72.30
14850;DHT22;7517;48.400;11.770;2023-04-15T12:26:53;14.20;72.70
14850;DHT22;7517;48.400;11.770;2023-04-15T12:29:25;14.20;72.80
14850;DHT22;7517;48.400;11.770;2023-04-15T12:31:56;14.30;72.70
14850;DHT22;7517;48.400;11.770;2023-04-15T12:34:26;14.30;72.40
14850;DHT22;7517;48.400;11.770;2023-04-15T12:36:58;14.40;72.20
14850;DHT22;7517;48.400;11.770;2023-04-15T12:39:28;14.40;71.70
14850;DHT22;7517;48.400;11.770;2023-04-15T12:41:56;14.40;71.70
14850;DHT22;7517;48.400;11.770;2023-04-15T12:44:27;14.50;71.80
14850;DHT22;7517;48.400;11.770;2023-04-15T12:46:57;14.50;71.20
14850;DHT22;7517;48.400;11.770;2023-04-15T12:49:26;14.60;71.50
14850;DHT22;7517;48.400;11.770;2023-04-15T12:51:56;14.70;71.40
14850;DHT22;7517;48.400;11.770;2023-04-15T12:54:47;14.70;71.20
14850;DHT22;7517;48.400;11.770;2023-04-15T12:57:20;14.90;71.00
14850;DHT22;7517;48.400;11.770;2023-04-15T12:59:52;14.90;71.70
14850;DHT22;7517;48.400;11.770;2023-04-15T13:02:19;15.00;71.20
14850;DHT22;7517;48.400;11.770;2023-04-15T13:04:49;15.10;72.00
14850;DHT22;7517;48.400;11.770;2023-04-15T13:07:18;15.20;71.40
14850;DHT22;7517;48.400;11.770;2023-04-15T13:09:45;15.20;70.70
14850;DHT22;7517;48.400;11.770;2023-04-15T13:12:13;15.20;70.20
14850;DHT22;7517;48.400;11.770;2023-04-15T13:14:40;15.20;70.00
14850;DHT22;7517;48.400;11.770;2023-04-15T13:17:08;15.30;70.10
14850;DHT22;7517;48.400;11.770;2023-04-15T13:19:36;15.30;69.70
14850;DHT22;7517;48.400;11.770;2023-04-15T13:22:38;15.30;69.70
14850;DHT22;7517;48.400;11.770;2023-04-15T13:25:15;15.30;67.60
14850;DHT22;7517;48.400;11.770;2023-04-15T13:27:45;15.20;68.40
14850;DHT22;7517;48.400;11.770;2023-04-15T13:30:13;15.20;69.00
14850;DHT22;7517;48.400;11.770;2023-04-15T13:32:40;15.10;68.40
14850;DHT22;7517;48.400;11.770;2023-04-15T13:35:07;15.10;68.20
14850;DHT22;7517;48.400;11.770;2023-04-15T13:37:36;15.10;67.70
14850;DHT22;7517;48.400;11.770;2023-04-15T13:40:07;15.10;67.90
14850;DHT22;7517;48.400;11.770;2023-04-15T13:42:35;15.10;68.30
14850;DHT22;7517;48.400;11.770;2023-04-15T13:45:03;15.10;68.70
14850;DHT22;7517;48.400;11.770;2023-04-15T13:47:30;15.10;68.50
14850;DHT22;7517;48.400;11.770;2023-04-15T13:49:58;15.10;68.50
14850;DHT22;7517;48.400;11.770;2023-04-15T13:52:27;15.10;69.10
14850;DHT22;7517;48.400;11.770;2023-04-15T13:54:56;15.10;69.30
14850;DHT22;7517;48.400;11.770;2023-04-15T13:57:23;15.10;68.90
14850;DHT22;7517;48.400;11.770;2023-04-15T13:59:51;15.10;68.30
14850;DHT22;7517;48.400;11.770;2023-04-15T14:02:20;15.10;68.70
14850;DHT22;7517;48.400;11.770;2023-04-15T14:04:48;15.10;68.60
14850;DHT22;7517;48.400;11.770;2023-04-15T14:07:16;15.10;68.60
14850;DHT22;7517;48.400;11.770;2023-04-15T14:09:43;15.10;69.10
14850;DHT22;7517;48.400;11.770;2023-04-15T14:12:14;15.10;68.80
14850;DHT22;7517;48.400;11.770;2023-04-15T14:14:41;15.00;68.30
14850;DHT22;7517;48.400;11.770;2023-04-15T14:17:08;15.00;68.50
14850;DHT22;7517;48.400;11.770;2023-04-15T14:19:36;15.00;68.70
14850;DHT22;7517;48.400;11.770;2023-04-15T14:22:03;14.90;68.70
14850;DHT22;7517;48.400;11.770;2023-04-15T14:24:30;14.90;68.20
14850;DHT22;7517;48.400;11.770;2023-04-15T14:26:58;14.90;68.10
14850;DHT22;7517;48.400;11.770;2023-04-15T14:29:28;14.80;67.50
14850;DHT22;7517;48.400;11.770;2023-04-15T14:31:55;14.80;66.90
14850;DHT22;7517;48.400;11.770;2023-04-15T14:34:23;14.70;67.30
14850;DHT22;7517;48.400;11.770;2023-04-15T14:36:51;14.70;67.60
14850;DHT22;7517;48.400;11.770;2023-04-15T14:39:18;14.60;67.70
14850;DHT22;7517;48.400;11.770;2023-04-15T14:41:46;14.50;67.30
14850;DHT22;7517;48.400;11.770;2023-04-15T14:44:15;14.50;67.60
14850;DHT22;7517;48.400;11.770;2023-04-15T14:46:43;14.50;67.40
14850;DHT22;7517;48.400;11.770;2023-04-15T14:49:11;14.40;67.90
14850;DHT22;7517;48.400;11.770;2023-04-15T14:51:38;14.40;68.00
14850;DHT22;7517;48.400;11.770;2023-04-15T14:54:05;14.30;68.10
14850;DHT22;7517;48.400;11.770;2023-04-15T14:56:33;14.30;68.80
14850;DHT22;7517;48.400;11.770;2023-04-15T14:59:02;14.20;67.80
14850;DHT22;7517;48.400;11.770;2023-04-15T15:01:32;14.70;68.20
14850;DHT22;7517;48.400;11.770;2023-04-15T15:04:01;14.10;67.80
14850;DHT22;7517;48.400;11.770;2023-04-15T15:06:29;14.10;68.00
14850;DHT22;7517;48.400;11.770;2023-04-15T15:08:56;14.00;68.50
14850;DHT22;7517;48.400;11.770;2023-04-15T15:11:23;14.00;68.30
14850;DHT22;7517;48.400;11.770;2023-04-15T15:13:51;14.00;68.60
14850;DHT22;7517;48.400;11.770;2023-04-15T15:16:18;13.90;68.60
14850;DHT22;7517;48.400;11.770;2023-04-15T15:18:46;13.90;68.60
14850;DHT22;7517;48.400;11.770;2023-04-15T15:21:14;13.80;68.40
14850;DHT22;7517;48.400;11.770;2023-04-15T15:23:41;13.80;68.20
14850;DHT22;7517;48.400;11.770;2023-04-15T15:26:09;13.70;68.80
14850;DHT22;7517;48.400;11.770;2023-04-15T15:28:37;13.70;69.10
14850;DHT22;7517;48.400;11.770;2023-04-15T15:31:06;13.60;69.10
14850;DHT22;7517;48.400;11.770;2023-04-15T15:33:34;13.60;68.80
14850;DHT22;7517;48.400;11.770;2023-04-15T15:38:51;13.50;68.90
14850;DHT22;7517;48.400;11.770;2023-04-15T15:41:18;13.40;69.20
14850;DHT22;7517;48.400;11.770;2023-04-15T15:43:46;13.40;69.50